TimeCST,TemperatureF,Dew PointF,Humidity,Sea Level PressureIn,VisibilityMPH,Wind Direction,Wind SpeedMPH,Gust SpeedMPH,PrecipitationIn,Events,Conditions,WindDirDegrees,DateUTC
12:52 AM,51.1,23.0,33,29.84,10.0,South,12.7,27.6,N/A,,Partly Cloudy,190,2012-12-06 06:52:00
1:52 AM,50.0,23.0,35,29.84,10.0,South,10.4,-,N/A,,Overcast,190,2012-12-06 07:52:00
2:52 AM,48.9,23.0,36,29.84,10.0,SSW,10.4,-,N/A,,Mostly Cloudy,200,2012-12-06 08:52:00
3:52 AM,50.0,23.0,35,29.83,10.0,SW,12.7,-,N/A,,Overcast,220,2012-12-06 09:52:00
4:52 AM,46.9,28.9,50,29.86,10.0,WSW,5.8,-,0.00,Rain,Light Rain,240,2012-12-06 10:52:00
5:52 AM,45.0,30.0,56,29.87,10.0,West,5.8,-,0.00,,Mostly Cloudy,260,2012-12-06 11:52:00
6:52 AM,43.0,36.0,76,29.87,10.0,NW,4.6,-,0.01,Rain,Light Rain,310,2012-12-06 12:52:00
7:52 AM,43.0,36.0,76,29.90,10.0,NNW,10.4,-,0.00,,Scattered Clouds,330,2012-12-06 13:52:00
8:52 AM,43.0,34.0,71,29.93,10.0,NNW,16.1,-,N/A,,Mostly Cloudy,330,2012-12-06 14:52:00
9:52 AM,44.1,34.0,68,29.94,10.0,NNW,13.8,-,N/A,,Clear,340,2012-12-06 15:52:00
10:52 AM,45.0,30.0,56,29.97,10.0,North,19.6,-,N/A,,Mostly Cloudy,350,2012-12-06 16:52:00
11:52 AM,46.0,30.0,54,29.96,10.0,North,16.1,-,N/A,,Clear,350,2012-12-06 17:52:00
12:52 PM,46.9,30.9,54,29.96,10.0,NNW,16.1,-,N/A,,Scattered Clouds,330,2012-12-06 18:52:00
1:52 PM,48.0,28.9,48,29.96,10.0,NNW,18.4,-,N/A,,Overcast,340,2012-12-06 19:52:00
2:52 PM,46.9,28.0,48,29.96,10.0,NNW,17.3,-,N/A,,Mostly Cloudy,340,2012-12-06 20:52:00
3:52 PM,46.9,27.0,46,29.97,10.0,NNW,17.3,-,N/A,,Overcast,340,2012-12-06 21:52:00
4:52 PM,44.1,27.0,51,29.98,10.0,NNW,12.7,-,N/A,,Overcast,340,2012-12-06 22:52:00
5:52 PM,42.1,26.1,53,30.00,10.0,North,10.4,-,N/A,,Overcast,350,2012-12-06 23:52:00
6:52 PM,41.0,27.0,57,30.00,10.0,NNW,5.8,-,N/A,,Overcast,340,2012-12-07 00:52:00
7:52 PM,41.0,27.0,57,30.01,10.0,NNW,4.6,-,N/A,,Overcast,330,2012-12-07 01:52:00
8:52 PM,41.0,27.0,57,30.02,10.0,North,5.8,-,N/A,,Overcast,350,2012-12-07 02:52:00
9:52 PM,41.0,26.1,55,30.03,10.0,North,4.6,-,N/A,,Overcast,350,2012-12-07 03:52:00
10:52 PM,39.9,26.1,58,30.03,10.0,North,4.6,-,N/A,,Overcast,350,2012-12-07 04:52:00
11:52 PM,39.9,26.1,58,30.04,10.0,NNE,3.5,-,N/A,,Overcast,30,2012-12-07 05:52:00